sensor_id;sensor_type;location;lat;lon;timestamp;pressure;altitude;pressure_sealevel;temperature;humidity
37020;BME280;22932;52.442;16.896;2022-09-14T00:01:22;99510.67;;;14.21;87.67
37020;BME280;22932;52.442;16.896;2022-09-14T00:03:52;99507.62;;;14.21;87.39
37020;BME280;22932;52.442;16.896;2022-09-14T00:06:20;99502.98;;;14.20;87.25
37020;BME280;22932;52.442;16.896;2022-09-14T00:08:50;99504.08;;;14.18;87.21
37020;BME280;22932;52.442;16.896;2022-09-14T00:11:18;99499.12;;;14.16;87.27
37020;BME280;22932;52.442;16.896;2022-09-14T00:13:47;99496.58;;;14.15;87.29
37020;BME280;22932;52.442;16.896;2022-09-14T00:16:16;99498.51;;;14.12;87.23
37020;BME280;22932;52.442;16.896;2022-09-14T00:18:48;99496.70;;;14.09;87.38
37020;BME280;22932;52.442;16.896;2022-09-14T00:21:16;99498.45;;;14.09;87.61
37020;BME280;22932;52.442;16.896;2022-09-14T00:23:43;99497.92;;;14.07;87.80
37020;BME280;22932;52.442;16.896;2022-09-14T00:26:12;99495.34;;;14.04;87.72
37020;BME280;22932;52.442;16.896;2022-09-14T00:28:42;99494.48;;;14.04;87.93
37020;BME280;22932;52.442;16.896;2022-09-14T00:31:11;99495.67;;;14.03;88.08
37020;BME280;22932;52.442;16.896;2022-09-14T00:33:41;99493.35;;;14.01;87.97
37020;BME280;22932;52.442;16.896;2022-09-14T00:36:11;99492.14;;;14.01;87.91
37020;BME280;22932;52.442;16.896;2022-09-14T00:38:39;99485.57;;;14.00;87.72
37020;BME280;22932;52.442;16.896;2022-09-14T00:41:11;99492.20;;;13.98;87.91
37020;BME280;22932;52.442;16.896;2022-09-14T00:43:54;99494.84;;;13.97;87.95
37020;BME280;22932;52.442;16.896;2022-09-14T00:46:22;99499.91;;;13.98;88.03
37020;BME280;22932;52.442;16.896;2022-09-14T00:48:50;99501.80;;;13.97;87.97
37020;BME280;22932;52.442;16.896;2022-09-14T00:51:19;99501.59;;;13.94;87.82
37020;BME280;22932;52.442;16.896;2022-09-14T00:53:47;99501.29;;;13.92;88.05
37020;BME280;22932;52.442;16.896;2022-09-14T00:56:16;99503.71;;;13.90;87.91
37020;BME280;22932;52.442;16.896;2022-09-14T00:58:45;99498.87;;;13.88;88.23
37020;BME280;22932;52.442;16.896;2022-09-14T01:01:14;99501.52;;;13.86;88.32
37020;BME280;22932;52.442;16.896;2022-09-14T01:03:41;99497.16;;;13.83;88.24
37020;BME280;22932;52.442;16.896;2022-09-14T01:06:16;99496.15;;;13.81;88.36
37020;BME280;22932;52.442;16.896;2022-09-14T01:08:53;99500.05;;;13.79;88.71
37020;BME280;22932;52.442;16.896;2022-09-14T01:11:35;99497.98;;;13.78;89.03
37020;BME280;22932;52.442;16.896;2022-09-14T01:14:12;99497.41;;;13.78;89.10
37020;BME280;22932;52.442;16.896;2022-09-14T01:16:48;99496.04;;;13.79;89.30
37020;BME280;22932;52.442;16.896;2022-09-14T01:19:25;99495.48;;;13.79;89.56
37020;BME280;22932;52.442;16.896;2022-09-14T01:21:54;99496.33;;;13.78;89.54
37020;BME280;22932;52.442;16.896;2022-09-14T01:24:36;99494.57;;;13.77;89.60
37020;BME280;22932;52.442;16.896;2022-09-14T01:27:28;99494.44;;;13.77;89.81
37020;BME280;22932;52.442;16.896;2022-09-14T01:30:03;99495.88;;;13.77;89.73
37020;BME280;22932;52.442;16.896;2022-09-14T01:32:37;99498.02;;;13.77;89.79
37020;BME280;22932;52.442;16.896;2022-09-14T01:35:09;99492.98;;;13.77;89.86
37020;BME280;22932;52.442;16.896;2022-09-14T01:37:42;99494.47;;;13.77;90.17
37020;BME280;22932;52.442;16.896;2022-09-14T01:40:16;99488.48;;;13.75;90.06
37020;BME280;22932;52.442;16.896;2022-09-14T01:42:50;99488.55;;;13.75;90.27
37020;BME280;22932;52.442;16.896;2022-09-14T01:45:19;99483.20;;;13.74;90.34
37020;BME280;22932;52.442;16.896;2022-09-14T01:47:53;99481.27;;;13.73;90.45
37020;BME280;22932;52.442;16.896;2022-09-14T01:50:24;99473.69;;;13.73;90.57
37020;BME280;22932;52.442;16.896;2022-09-14T01:52:56;99474.06;;;13.73;90.55
37020;BME280;22932;52.442;16.896;2022-09-14T01:55:28;99478.70;;;13.73;90.91
37020;BME280;22932;52.442;16.896;2022-09-14T01:58:00;99479.36;;;13.74;90.82
37020;BME280;22932;52.442;16.896;2022-09-14T02:00:30;99480.27;;;13.74;90.70
37020;BME280;22932;52.442;16.896;2022-09-14T02:03:01;99477.20;;;13.76;90.83
37020;BME280;22932;52.442;16.896;2022-09-14T02:05:33;99479.98;;;13.75;90.76
37020;BME280;22932;52.442;16.896;2022-09-14T02:08:02;99476.14;;;13.74;90.63
37020;BME280;22932;52.442;16.896;2022-09-14T02:10:30;99472.75;;;13.72;90.57
37020;BME280;22932;52.442;16.896;2022-09-14T02:12:57;99473.00;;;13.70;90.68
37020;BME280;22932;52.442;16.896;2022-09-14T02:15:25;99476.14;;;13.69;90.75
37020;BME280;22932;52.442;16.896;2022-09-14T02:17:53;99476.33;;;13.68;90.48
37020;BME280;22932;52.442;16.896;2022-09-14T02:20:23;99475.21;;;13.67;90.55
37020;BME280;22932;52.442;16.896;2022-09-14T02:22:53;99471.16;;;13.64;90.40
37020;BME280;22932;52.442;16.896;2022-09-14T02:25:20;99470.80;;;13.63;90.59
37020;BME280;22932;52.442;16.896;2022-09-14T02:27:48;99472.06;;;13.61;90.34
37020;BME280;22932;52.442;16.896;2022-09-14T02:30:16;99470.45;;;13.61;90.53
37020;BME280;22932;52.442;16.896;2022-09-14T02:32:48;99468.50;;;13.59;90.52
37020;BME280;22932;52.442;16.896;2022-09-14T02:35:24;99466.44;;;13.58;90.43
37020;BME280;22932;52.442;16.896;2022-09-14T02:38:00;99461.66;;;13.58;90.44
37020;BME280;22932;52.442;16.896;2022-09-14T02:40:35;99458.17;;;13.56;90.39
37020;BME280;22932;52.442;16.896;2022-09-14T02:43:16;99452.80;;;13.56;90.49
37020;BME280;22932;52.442;16.896;2022-09-14T02:45:54;99448.88;;;13.55;90.52
37020;BME280;22932;52.442;16.896;2022-09-14T02:48:31;99446.53;;;13.54;90.41
37020;BME280;22932;52.442;16.896;2022-09-14T02:51:05;99448.61;;;13.53;90.26
37020;BME280;22932;52.442;16.896;2022-09-14T02:53:38;99445.52;;;13.53;90.21
37020;BME280;22932;52.442;16.896;2022-09-14T02:56:10;99445.22;;;13.53;90.02
37020;BME280;22932;52.442;16.896;2022-09-14T02:58:40;99444.75;;;13.52;89.89
37020;BME280;22932;52.442;16.896;2022-09-14T03:01:10;99445.97;;;13.51;90.04
37020;BME280;22932;52.442;16.896;2022-09-14T03:03:38;99450.30;;;13.49;89.79
37020;BME280;22932;52.442;16.896;2022-09-14T03:06:06;99454.50;;;13.46;89.47
37020;BME280;22932;52.442;16.896;2022-09-14T03:08:33;99448.61;;;13.44;89.35
37020;BME280;22932;52.442;16.896;2022-09-14T03:11:01;99449.24;;;13.40;89.43
37020;BME280;22932;52.442;16.896;2022-09-14T03:13:28;99445.31;;;13.37;89.61
37020;BME280;22932;52.442;16.896;2022-09-14T03:15:56;99442.38;;;13.36;89.37
37020;BME280;22932;52.442;16.896;2022-09-14T03:18:23;99442.58;;;13.36;89.48
37020;BME280;22932;52.442;16.896;2022-09-14T03:20:50;99444.29;;;13.33;89.49
37020;BME280;22932;52.442;16.896;2022-09-14T03:23:17;99441.11;;;13.31;89.25
37020;BME280;22932;52.442;16.896;2022-09-14T03:25:45;99443.98;;;13.28;89.21
37020;BME280;22932;52.442;16.896;2022-09-14T03:28:12;99441.20;;;13.27;89.22
37020;BME280;22932;52.442;16.896;2022-09-14T03:30:40;99445.13;;;13.26;89.32
37020;BME280;22932;52.442;16.896;2022-09-14T03:33:07;99443.89;;;13.24;89.45
37020;BME280;22932;52.442;16.896;2022-09-14T03:35:34;99444.01;;;13.21;89.26
37020;BME280;22932;52.442;16.896;2022-09-14T03:38:02;99443.19;;;13.18;89.14
37020;BME280;22932;52.442;16.896;2022-09-14T03:40:30;99443.44;;;13.16;89.49
37020;BME280;22932;52.442;16.896;2022-09-14T03:42:57;99443.05;;;13.14;89.48
37020;BME280;22932;52.442;16.896;2022-09-14T03:45:25;99446.63;;;13.13;89.19
37020;BME280;22932;52.442;16.896;2022-09-14T03:47:52;99443.06;;;13.11;89.22
37020;BME280;22932;52.442;16.896;2022-09-14T03:50:19;99443.98;;;13.10;89.33
37020;BME280;22932;52.442;16.896;2022-09-14T03:52:47;99445.34;;;13.09;89.36
37020;BME280;22932;52.442;16.896;2022-09-14T03:55:14;99447.82;;;13.09;89.41
37020;BME280;22932;52.442;16.896;2022-09-14T03:57:42;99444.98;;;13.07;89.16
37020;BME280;22932;52.442;16.896;2022-09-14T04:00:10;99444.52;;;13.05;89.08
37020;BME280;22932;52.442;16.896;2022-09-14T04:02:38;99439.56;;;13.02;89.31
37020;BME280;22932;52.442;16.896;2022-09-14T04:05:06;99445.02;;;13.00;89.27
37020;BME280;22932;52.442;16.896;2022-09-14T04:07:34;99446.64;;;12.97;89.19
37020;BME280;22932;52.442;16.896;2022-09-14T04:10:02;99443.13;;;12.95;89.29
37020;BME280;22932;52.442;16.896;2022-09-14T04:12:34;99449.75;;;12.93;89.15
37020;BME280;22932;52.442;16.896;2022-09-14T04:15:01;99447.34;;;12.90;89.14
37020;BME280;22932;52.442;16.896;2022-09-14T04:17:29;99440.88;;;12.90;89.16
37020;BME280;22932;52.442;16.896;2022-09-14T04:19:56;99436.70;;;12.90;89.22
37020;BME280;22932;52.442;16.896;2022-09-14T04:22:24;99442.96;;;12.89;89.22
37020;BME280;22932;52.442;16.896;2022-09-14T04:24:52;99439.86;;;12.87;89.12
37020;BME280;22932;52.442;16.896;2022-09-14T04:27:20;99437.65;;;12.86;89.04
37020;BME280;22932;52.442;16.896;2022-09-14T04:29:49;99439.24;;;12.83;88.95
37020;BME280;22932;52.442;16.896;2022-09-14T04:32:16;99442.05;;;12.82;88.98
37020;BME280;22932;52.442;16.896;2022-09-14T04:34:44;99439.08;;;12.82;88.78
37020;BME280;22932;52.442;16.896;2022-09-14T04:37:11;99439.29;;;12.80;88.95
37020;BME280;22932;52.442;16.896;2022-09-14T04:39:38;99448.34;;;12.78;88.70
37020;BME280;22932;52.442;16.896;2022-09-14T04:42:06;99450.52;;;12.76;88.83
37020;BME280;22932;52.442;16.896;2022-09-14T04:44:34;99447.58;;;12.75;88.70
37020;BME280;22932;52.442;16.896;2022-09-14T04:47:01;99453.06;;;12.76;88.80
37020;BME280;22932;52.442;16.896;2022-09-14T04:49:28;99456.67;;;12.76;88.66
37020;BME280;22932;52.442;16.896;2022-09-14T04:51:56;99459.74;;;12.75;88.65
37020;BME280;22932;52.442;16.896;2022-09-14T04:54:23;99461.13;;;12.75;88.72
37020;BME280;22932;52.442;16.896;2022-09-14T04:56:50;99460.54;;;12.77;88.75
37020;BME280;22932;52.442;16.896;2022-09-14T04:59:18;99461.82;;;12.80;88.76
37020;BME280;22932;52.442;16.896;2022-09-14T05:01:46;99461.80;;;12.82;88.65
37020;BME280;22932;52.442;16.896;2022-09-14T05:04:15;99465.52;;;12.82;88.65
37020;BME280;22932;52.442;16.896;2022-09-14T05:06:43;99467.10;;;12.83;88.46
37020;BME280;22932;52.442;16.896;2022-09-14T05:09:16;99465.27;;;12.83;88.42
37020;BME280;22932;52.442;16.896;2022-09-14T05:11:43;99467.59;;;12.83;88.32
37020;BME280;22932;52.442;16.896;2022-09-14T05:14:12;99468.95;;;12.82;88.30
37020;BME280;22932;52.442;16.896;2022-09-14T05:16:41;99468.89;;;12.81;88.07
37020;BME280;22932;52.442;16.896;2022-09-14T05:19:12;99466.23;;;12.80;88.07
37020;BME280;22932;52.442;16.896;2022-09-14T05:21:39;99469.47;;;12.79;88.03
37020;BME280;22932;52.442;16.896;2022-09-14T05:24:10;99467.27;;;12.80;88.12
37020;BME280;22932;52.442;16.896;2022-09-14T05:26:38;99466.55;;;12.81;88.38
37020;BME280;22932;52.442;16.896;2022-09-14T05:29:06;99470.07;;;12.82;87.92
37020;BME280;22932;52.442;16.896;2022-09-14T05:31:33;99469.32;;;12.84;87.96
37020;BME280;22932;52.442;16.896;2022-09-14T05:34:00;99462.92;;;12.86;87.87
37020;BME280;22932;52.442;16.896;2022-09-14T05:36:27;99463.39;;;12.92;88.03
37020;BME280;22932;52.442;16.896;2022-09-14T05:38:55;99462.03;;;13.02;88.44
37020;BME280;22932;52.442;16.896;2022-09-14T05:41:23;99458.81;;;13.12;88.10
37020;BME280;22932;52.442;16.896;2022-09-14T05:43:51;99460.40;;;13.19;88.08
37020;BME280;22932;52.442;16.896;2022-09-14T05:46:18;99460.88;;;13.24;87.81
37020;BME280;22932;52.442;16.896;2022-09-14T05:48:46;99457.81;;;13.32;87.76
37020;BME280;22932;52.442;16.896;2022-09-14T05:51:18;99460.27;;;13.45;87.85
37020;BME280;22932;52.442;16.896;2022-09-14T05:53:48;99457.36;;;13.56;87.84
37020;BME280;22932;52.442;16.896;2022-09-14T05:56:16;99458.44;;;13.65;87.62
37020;BME280;22932;52.442;16.896;2022-09-14T05:58:44;99458.46;;;13.73;87.53
37020;BME280;22932;52.442;16.896;2022-09-14T06:01:14;99455.13;;;13.79;87.15
37020;BME280;22932;52.442;16.896;2022-09-14T06:03:43;99459.02;;;13.83;86.74
37020;BME280;22932;52.442;16.896;2022-09-14T06:06:12;99459.58;;;13.88;86.69
37020;BME280;22932;52.442;16.896;2022-09-14T06:08:39;99459.81;;;13.92;86.63
37020;BME280;22932;52.442;16.896;2022-09-14T06:11:08;99460.52;;;13.97;86.48
37020;BME280;22932;52.442;16.896;2022-09-14T06:13:36;99463.27;;;14.01;86.12
37020;BME280;22932;52.442;16.896;2022-09-14T06:16:04;99470.21;;;14.04;85.84
37020;BME280;22932;52.442;16.896;2022-09-14T06:18:33;99469.71;;;14.06;85.76
37020;BME280;22932;52.442;16.896;2022-09-14T06:21:02;99463.63;;;14.10;85.32
37020;BME280;22932;52.442;16.896;2022-09-14T06:23:29;99458.71;;;14.19;85.69
37020;BME280;22932;52.442;16.896;2022-09-14T06:25:58;99458.21;;;14.34;86.03
37020;BME280;22932;52.442;16.896;2022-09-14T06:28:27;99461.17;;;14.50;86.12
37020;BME280;22932;52.442;16.896;2022-09-14T06:30:55;99460.00;;;14.68;86.05
37020;BME280;22932;52.442;16.896;2022-09-14T06:33:23;99459.42;;;14.83;85.87
37020;BME280;22932;52.442;16.896;2022-09-14T06:35:55;99459.59;;;14.94;85.36
37020;BME280;22932;52.442;16.896;2022-09-14T06:38:23;99462.08;;;15.01;84.81
37020;BME280;22932;52.442;16.896;2022-09-14T06:40:54;99464.09;;;15.07;84.55
37020;BME280;22932;52.442;16.896;2022-09-14T06:43:23;99469.94;;;15.14;84.22
37020;BME280;22932;52.442;16.896;2022-09-14T06:45:58;99471.27;;;15.18;83.88
37020;BME280;22932;52.442;16.896;2022-09-14T06:48:26;99472.79;;;15.21;83.55
37020;BME280;22932;52.442;16.896;2022-09-14T06:50:53;99467.38;;;15.32;83.90
37020;BME280;22932;52.442;16.896;2022-09-14T06:53:20;99467.67;;;15.45;83.63
37020;BME280;22932;52.442;16.896;2022-09-14T06:55:48;99464.39;;;15.53;83.14
37020;BME280;22932;52.442;16.896;2022-09-14T06:58:15;99457.37;;;15.67;82.95
37020;BME280;22932;52.442;16.896;2022-09-14T07:00:42;99465.79;;;15.85;82.80
37020;BME280;22932;52.442;16.896;2022-09-14T07:03:10;99469.98;;;15.93;82.42
37020;BME280;22932;52.442;16.896;2022-09-14T07:05:37;99476.66;;;16.09;82.51
37020;BME280;22932;52.442;16.896;2022-09-14T07:08:05;99477.94;;;16.25;81.76
37020;BME280;22932;52.442;16.896;2022-09-14T07:10:32;99474.83;;;16.37;81.57
37020;BME280;22932;52.442;16.896;2022-09-14T07:12:59;99466.09;;;16.47;81.10
37020;BME280;22932;52.442;16.896;2022-09-14T07:15:27;99465.50;;;16.55;80.37
37020;BME280;22932;52.442;16.896;2022-09-14T07:17:54;99469.70;;;16.72;80.51
37020;BME280;22932;52.442;16.896;2022-09-14T07:20:21;99467.70;;;16.89;80.46
37020;BME280;22932;52.442;16.896;2022-09-14T07:22:49;99468.64;;;17.01;79.90
37020;BME280;22932;52.442;16.896;2022-09-14T07:25:16;99466.05;;;17.24;79.90
37020;BME280;22932;52.442;16.896;2022-09-14T07:27:43;99460.84;;;17.48;79.55
37020;BME280;22932;52.442;16.896;2022-09-14T07:30:11;99468.46;;;17.66;78.62
37020;BME280;22932;52.442;16.896;2022-09-14T07:32:38;99466.45;;;17.81;77.79
37020;BME280;22932;52.442;16.896;2022-09-14T07:35:07;99465.31;;;17.82;77.03
37020;BME280;22932;52.442;16.896;2022-09-14T07:37:34;99472.66;;;17.91;76.59
37020;BME280;22932;52.442;16.896;2022-09-14T07:40:02;99474.76;;;18.05;76.74
37020;BME280;22932;52.442;16.896;2022-09-14T07:42:29;99469.41;;;18.19;75.78
37020;BME280;22932;52.442;16.896;2022-09-14T07:44:57;99471.64;;;18.35;76.08
37020;BME280;22932;52.442;16.896;2022-09-14T07:47:24;99471.66;;;18.59;75.84
37020;BME280;22932;52.442;16.896;2022-09-14T07:49:52;99468.52;;;18.75;74.96
37020;BME280;22932;52.442;16.896;2022-09-14T07:52:19;99469.20;;;18.88;74.50
37020;BME280;22932;52.442;16.896;2022-09-14T07:54:47;99474.09;;;18.96;73.77
37020;BME280;22932;52.442;16.896;2022-09-14T07:57:14;99469.75;;;19.03;73.18
37020;BME280;22932;52.442;16.896;2022-09-14T07:59:42;99469.66;;;19.13;72.87
37020;BME280;22932;52.442;16.896;2022-09-14T08:02:10;99470.67;;;19.15;71.25
37020;BME280;22932;52.442;16.896;2022-09-14T08:04:38;99468.44;;;19.06;70.71
37020;BME280;22932;52.442;16.896;2022-09-14T08:07:05;99469.57;;;19.06;70.83
37020;BME280;22932;52.442;16.896;2022-09-14T08:09:33;99464.71;;;19.09;71.02
37020;BME280;22932;52.442;16.896;2022-09-14T08:12:01;99462.72;;;19.21;71.30
37020;BME280;22932;52.442;16.896;2022-09-14T08:14:31;99467.09;;;19.36;71.01
37020;BME280;22932;52.442;16.896;2022-09-14T08:16:58;99467.23;;;19.54;71.08
37020;BME280;22932;52.442;16.896;2022-09-14T08:19:26;99465.21;;;19.75;70.53
37020;BME280;22932;52.442;16.896;2022-09-14T08:21:53;99463.41;;;19.98;70.53
37020;BME280;22932;52.442;16.896;2022-09-14T08:24:21;99463.29;;;20.06;68.61
37020;BME280;22932;52.442;16.896;2022-09-14T08:26:48;99459.70;;;20.21;68.87
37020;BME280;22932;52.442;16.896;2022-09-14T08:29:17;99456.98;;;20.47;69.00
37020;BME280;22932;52.442;16.896;2022-09-14T08:31:45;99451.77;;;20.66;68.26
37020;BME280;22932;52.442;16.896;2022-09-14T08:34:13;99451.56;;;20.83;67.56
37020;BME280;22932;52.442;16.896;2022-09-14T08:36:42;99446.34;;;20.87;66.69
37020;BME280;22932;52.442;16.896;2022-09-14T08:39:11;99448.47;;;20.91;65.75
37020;BME280;22932;52.442;16.896;2022-09-14T08:41:42;99443.95;;;20.88;64.56
37020;BME280;22932;52.442;16.896;2022-09-14T08:44:15;99441.11;;;20.89;64.32
37020;BME280;22932;52.442;16.896;2022-09-14T08:46:47;99445.64;;;20.91;64.35
37020;BME280;22932;52.442;16.896;2022-09-14T08:49:20;99439.38;;;21.05;64.66
37020;BME280;22932;52.442;16.896;2022-09-14T08:51:51;99442.66;;;21.27;64.55
37020;BME280;22932;52.442;16.896;2022-09-14T08:54:19;99443.52;;;21.43;63.84
37020;BME280;22932;52.442;16.896;2022-09-14T08:56:51;99442.21;;;21.56;62.67
37020;BME280;22932;52.442;16.896;2022-09-14T08:59:34;99438.55;;;21.70;62.92
37020;BME280;22932;52.442;16.896;2022-09-14T09:02:17;99432.91;;;21.94;62.33
37020;BME280;22932;52.442;16.896;2022-09-14T09:04:52;99435.14;;;22.02;60.70
37020;BME280;22932;52.442;16.896;2022-09-14T09:07:29;99437.50;;;22.08;60.69
37020;BME280;22932;52.442;16.896;2022-09-14T09:09:58;99439.65;;;22.28;60.92
37020;BME280;22932;52.442;16.896;2022-09-14T09:12:34;99439.73;;;22.50;60.68
37020;BME280;22932;52.442;16.896;2022-09-14T09:15:13;99445.43;;;22.64;59.65
37020;BME280;22932;52.442;16.896;2022-09-14T09:17:45;99443.48;;;22.72;58.70
37020;BME280;22932;52.442;16.896;2022-09-14T09:20:17;99438.75;;;22.78;58.40
37020;BME280;22932;52.442;16.896;2022-09-14T09:22:49;99438.54;;;22.84;58.15
37020;BME280;22932;52.442;16.896;2022-09-14T09:25:21;99439.52;;;22.78;56.85
37020;BME280;22932;52.442;16.896;2022-09-14T09:27:50;99433.46;;;22.70;56.31
37020;BME280;22932;52.442;16.896;2022-09-14T09:30:20;99430.45;;;22.68;56.00
37020;BME280;22932;52.442;16.896;2022-09-14T09:32:47;99434.17;;;22.59;56.14
37020;BME280;22932;52.442;16.896;2022-09-14T09:35:18;99433.69;;;22.62;55.39
37020;BME280;22932;52.442;16.896;2022-09-14T09:37:47;99430.04;;;22.61;55.50
37020;BME280;22932;52.442;16.896;2022-09-14T09:40:19;99432.77;;;22.50;55.13
37020;BME280;22932;52.442;16.896;2022-09-14T09:43:07;99431.09;;;22.27;54.08
37020;BME280;22932;52.442;16.896;2022-09-14T09:45:50;99431.48;;;22.22;54.72
37020;BME280;22932;52.442;16.896;2022-09-14T09:48:25;99433.81;;;22.31;54.56
37020;BME280;22932;52.442;16.896;2022-09-14T09:51:01;99430.05;;;22.35;54.61
37020;BME280;22932;52.442;16.896;2022-09-14T09:53:30;99429.41;;;22.46;54.86
37020;BME280;22932;52.442;16.896;2022-09-14T09:56:00;99427.15;;;22.55;53.70
37020;BME280;22932;52.442;16.896;2022-09-14T09:58:30;99425.52;;;22.46;53.62
37020;BME280;22932;52.442;16.896;2022-09-14T10:01:00;99433.14;;;22.25;52.94
37020;BME280;22932;52.442;16.896;2022-09-14T10:03:32;99431.03;;;22.00;52.73
37020;BME280;22932;52.442;16.896;2022-09-14T10:06:02;99430.06;;;21.83;53.27
37020;BME280;22932;52.442;16.896;2022-09-14T10:08:38;99428.60;;;21.67;53.45
37020;BME280;22932;52.442;16.896;2022-09-14T10:11:08;99432.06;;;21.59;53.65
37020;BME280;22932;52.442;16.896;2022-09-14T10:32:23;99414.55;;;21.75;52.83
37020;BME280;22932;52.442;16.896;2022-09-14T10:34:51;99407.10;;;21.54;51.16
37020;BME280;22932;52.442;16.896;2022-09-14T10:37:29;99405.23;;;21.33;52.19
37020;BME280;22932;52.442;16.896;2022-09-14T10:40:10;99399.63;;;21.19;52.36
37020;BME280;22932;52.442;16.896;2022-09-14T10:42:50;99396.14;;;21.04;52.60
37020;BME280;22932;52.442;16.896;2022-09-14T10:45:26;99394.52;;;20.97;52.87
37020;BME280;22932;52.442;16.896;2022-09-14T10:48:17;99391.39;;;20.99;53.37
37020;BME280;22932;52.442;16.896;2022-09-14T10:50:59;99385.91;;;20.93;53.10
37020;BME280;22932;52.442;16.896;2022-09-14T10:53:47;99391.21;;;20.85;53.34
37020;BME280;22932;52.442;16.896;2022-09-14T10:56:20;99390.34;;;21.01;53.79
37020;BME280;22932;52.442;16.896;2022-09-14T10:59:19;99386.61;;;21.05;53.36
37020;BME280;22932;52.442;16.896;2022-09-14T11:02:08;99382.21;;;21.00;53.44
37020;BME280;22932;52.442;16.896;2022-09-14T11:04:51;99377.48;;;21.00;53.38
37020;BME280;22932;52.442;16.896;2022-09-14T11:07:27;99376.86;;;21.04;53.59
37020;BME280;22932;52.442;16.896;2022-09-14T11:10:06;99379.30;;;21.15;53.81
37020;BME280;22932;52.442;16.896;2022-09-14T11:12:43;99376.86;;;21.27;53.91
37020;BME280;22932;52.442;16.896;2022-09-14T11:15:22;99380.30;;;21.40;53.52
37020;BME280;22932;52.442;16.896;2022-09-14T11:18:07;99376.20;;;21.40;53.28
37020;BME280;22932;52.442;16.896;2022-09-14T11:20:44;99377.97;;;21.39;53.29
37020;BME280;22932;52.442;16.896;2022-09-14T11:23:26;99374.17;;;21.41;53.47
37020;BME280;22932;52.442;16.896;2022-09-14T11:25:59;99379.76;;;21.40;53.55
37020;BME280;22932;52.442;16.896;2022-09-14T11:28:31;99383.30;;;21.33;53.20
37020;BME280;22932;52.442;16.896;2022-09-14T11:31:03;99383.27;;;21.31;53.24
37020;BME280;22932;52.442;16.896;2022-09-14T11:33:36;99379.55;;;21.29;53.10
37020;BME280;22932;52.442;16.896;2022-09-14T11:36:11;99375.02;;;21.26;52.61
37020;BME280;22932;52.442;16.896;2022-09-14T11:38:43;99369.05;;;21.22;52.76
37020;BME280;22932;52.442;16.896;2022-09-14T11:41:21;99358.39;;;21.20;52.68
37020;BME280;22932;52.442;16.896;2022-09-14T11:43:55;99354.54;;;21.13;52.72
37020;BME280;22932;52.442;16.896;2022-09-14T11:46:29;99356.83;;;21.02;52.53
37020;BME280;22932;52.442;16.896;2022-09-14T11:49:04;99360.61;;;20.92;52.61
37020;BME280;22932;52.442;16.896;2022-09-14T11:51:40;99355.92;;;20.81;52.69
37020;BME280;22932;52.442;16.896;2022-09-14T11:54:12;99361.09;;;20.73;52.87
37020;BME280;22932;52.442;16.896;2022-09-14T11:56:42;99366.76;;;20.64;52.63
37020;BME280;22932;52.442;16.896;2022-09-14T11:59:44;99359.33;;;20.52;52.81
37020;BME280;22932;52.442;16.896;2022-09-14T12:05:32;99355.60;;;20.45;53.64
37020;BME280;22932;52.442;16.896;2022-09-14T12:08:02;99359.58;;;20.44;53.83
37020;BME280;22932;52.442;16.896;2022-09-14T12:10:31;99359.17;;;20.40;53.93
37020;BME280;22932;52.442;16.896;2022-09-14T12:13:19;99362.72;;;20.35;54.00
37020;BME280;22932;52.442;16.896;2022-09-14T12:15:47;99365.68;;;20.31;54.27
37020;BME280;22932;52.442;16.896;2022-09-14T12:18:22;99360.35;;;20.33;54.53
37020;BME280;22932;52.442;16.896;2022-09-14T12:21:00;99359.17;;;20.35;54.71
37020;BME280;22932;52.442;16.896;2022-09-14T12:23:32;99368.02;;;20.36;54.60
37020;BME280;22932;52.442;16.896;2022-09-14T12:26:37;99369.16;;;20.34;54.37
37020;BME280;22932;52.442;16.896;2022-09-14T12:37:52;99359.83;;;20.14;54.42
37020;BME280;22932;52.442;16.896;2022-09-14T12:40:32;99357.71;;;20.11;54.55
37020;BME280;22932;52.442;16.896;2022-09-14T12:46:31;99349.05;;;20.05;54.75
37020;BME280;22932;52.442;16.896;2022-09-14T12:49:01;99347.48;;;20.06;54.86
37020;BME280;22932;52.442;16.896;2022-09-14T12:51:41;99347.98;;;20.08;54.93
37020;BME280;22932;52.442;16.896;2022-09-14T12:54:19;99344.92;;;20.08;54.94
37020;BME280;22932;52.442;16.896;2022-09-14T12:56:56;99339.78;;;20.09;55.09
37020;BME280;22932;52.442;16.896;2022-09-14T12:59:34;99342.30;;;20.09;54.76
37020;BME280;22932;52.442;16.896;2022-09-14T13:02:32;99339.63;;;20.04;54.61
37020;BME280;22932;52.442;16.896;2022-09-14T13:05:04;99336.98;;;19.99;54.59
37020;BME280;22932;52.442;16.896;2022-09-14T13:07:35;99327.17;;;19.97;54.58
37020;BME280;22932;52.442;16.896;2022-09-14T13:10:14;99329.16;;;19.97;54.83
37020;BME280;22932;52.442;16.896;2022-09-14T13:12:44;99330.02;;;19.96;54.77
37020;BME280;22932;52.442;16.896;2022-09-14T13:15:18;99332.13;;;19.93;54.67
37020;BME280;22932;52.442;16.896;2022-09-14T13:17:57;99331.42;;;19.90;54.84
37020;BME280;22932;52.442;16.896;2022-09-14T13:20:26;99329.98;;;19.93;55.20
37020;BME280;22932;52.442;16.896;2022-09-14T13:22:54;99327.33;;;19.90;54.84
37020;BME280;22932;52.442;16.896;2022-09-14T13:25:28;99327.04;;;19.86;54.95
37020;BME280;22932;52.442;16.896;2022-09-14T13:27:59;99329.09;;;19.87;55.25
37020;BME280;22932;52.442;16.896;2022-09-14T13:30:29;99326.49;;;19.90;55.57
37020;BME280;22932;52.442;16.896;2022-09-14T13:32:57;99323.19;;;19.95;55.51
37020;BME280;22932;52.442;16.896;2022-09-14T22:12:51;99153.45;;;15.53;68.88
37020;BME280;22932;52.442;16.896;2022-09-14T22:15:19;99153.52;;;15.51;69.07
37020;BME280;22932;52.442;16.896;2022-09-14T22:17:47;99157.88;;;15.48;69.29
37020;BME280;22932;52.442;16.896;2022-09-14T22:20:15;99158.95;;;15.44;69.14
37020;BME280;22932;52.442;16.896;2022-09-14T22:22:43;99160.44;;;15.43;69.42